Time;durP1;ratioP1;P1;durP2;ratioP2;P2;SDS_P1;SDS_P2;PMS_P1;PMS_P2;Temp;Humidity;BMP_temperature;BMP_pressure;BME280_temperature;BME280_humidity;BME280_pressure;Samples;Min_cycle;Max_cycle;Signal;HPM_P1;HPM_P2
2023/06/20 00:01:28;;;;;;;8.23;6.30;;;19.40;99.90;;;;;;4958057;28;20432;-73
2023/06/20 00:03:54;;;;;;;12.10;6.80;;;19.50;99.90;;;;;;4976025;28;20966;-74
2023/06/20 00:06:22;;;;;;;7.57;6.50;;;19.40;99.90;;;;;;4954218;28;21148;-73
2023/06/20 00:08:48;;;;;;;9.60;6.70;;;19.40;99.90;;;;;;4963055;28;20429;-74
2023/06/20 00:11:15;;;;;;;8.32;6.70;;;19.40;99.90;;;;;;4960259;28;20873;-73
2023/06/20 00:13:42;;;;;;;9.15;6.80;;;19.40;99.90;;;;;;4953839;28;20433;-73
2023/06/20 00:16:11;;;;;;;8.90;6.55;;;19.30;99.90;;;;;;4958587;28;20534;-73
2023/06/20 00:18:38;;;;;;;8.85;6.65;;;19.40;99.90;;;;;;4953487;28;20425;-73
2023/06/20 00:21:05;;;;;;;10.68;7.40;;;19.30;99.90;;;;;;4948454;28;20978;-74
2023/06/20 00:23:31;;;;;;;8.25;6.97;;;19.20;99.90;;;;;;4974998;28;20421;-73
2023/06/20 00:25:58;;;;;;;8.10;6.38;;;19.20;99.90;;;;;;4973819;28;20765;-73
2023/06/20 00:28:24;;;;;;;8.15;6.38;;;19.30;99.90;;;;;;4953067;28;20421;-73
2023/06/20 00:30:50;;;;;;;10.65;7.00;;;19.20;99.90;;;;;;4966791;28;20426;-73
2023/06/20 00:33:20;;;;;;;7.80;6.70;;;19.20;99.90;;;;;;4955055;28;20456;-73
2023/06/20 00:35:46;;;;;;;9.07;6.93;;;19.20;99.90;;;;;;4955108;28;20463;-73
2023/06/20 00:38:12;;;;;;;11.07;6.60;;;19.30;99.90;;;;;;4967387;28;20468;-73
2023/06/20 00:40:39;;;;;;;8.18;6.60;;;19.40;99.90;;;;;;4958738;28;20440;-73
2023/06/20 00:43:05;;;;;;;7.40;6.10;;;19.40;99.90;;;;;;4952294;28;20833;-73
2023/06/20 00:45:34;;;;;;;8.52;6.18;;;19.40;99.90;;;;;;4962741;28;20537;-74
2023/06/20 00:48:05;;;;;;;8.27;6.13;;;19.40;99.90;;;;;;4951901;28;20433;-74
2023/06/20 00:50:32;;;;;;;6.38;5.75;;;19.40;99.90;;;;;;4954611;28;20424;-74
2023/06/20 00:53:07;;;;;;;6.53;5.72;;;19.30;99.90;;;;;;4961137;28;20475;-74
2023/06/20 00:55:35;;;;;;;8.13;5.72;;;19.30;99.90;;;;;;4967012;28;20437;-73
2023/06/20 00:58:04;;;;;;;7.25;5.60;;;19.30;99.90;;;;;;4972899;28;20418;-74
2023/06/20 01:00:33;;;;;;;6.93;5.43;;;19.30;99.90;;;;;;4960755;28;20880;-75
2023/06/20 01:03:18;;;;;;;6.32;5.40;;;19.20;99.90;;;;;;4951903;28;20513;-74
2023/06/20 01:06:05;;;;;;;8.13;5.60;;;19.20;99.90;;;;;;4954405;28;20984;-76
2023/06/20 01:08:51;;;;;;;6.35;5.38;;;19.20;99.90;;;;;;4953673;28;20421;-76
2023/06/20 01:11:31;;;;;;;8.43;5.95;;;19.20;99.90;;;;;;4975357;28;20430;-76
2023/06/20 01:14:15;;;;;;;8.18;5.78;;;19.20;99.90;;;;;;4957710;28;20448;-76
2023/06/20 01:17:15;;;;;;;7.25;5.70;;;19.20;99.90;;;;;;4960839;28;20414;-75
2023/06/20 01:20:12;;;;;;;8.97;5.60;;;19.20;99.90;;;;;;4957760;28;20541;-75
2023/06/20 01:23:08;;;;;;;7.75;5.70;;;19.20;99.90;;;;;;4956015;28;20416;-75
2023/06/20 01:26:05;;;;;;;6.45;5.13;;;19.20;99.90;;;;;;4951448;28;20513;-75
2023/06/20 01:29:09;;;;;;;7.32;5.75;;;19.20;99.90;;;;;;4976640;28;20438;-75
2023/06/20 01:31:40;;;;;;;6.05;5.43;;;19.10;99.90;;;;;;4983781;28;20437;-74
2023/06/20 01:34:19;;;;;;;7.45;5.30;;;19.10;99.90;;;;;;4954795;28;20516;-74
2023/06/20 01:36:56;;;;;;;9.00;5.53;;;19.10;99.90;;;;;;4953911;28;20439;-76
2023/06/20 01:39:32;;;;;;;7.22;5.32;;;19.00;99.90;;;;;;4948122;28;20601;-76
2023/06/20 01:42:04;;;;;;;6.90;5.50;;;19.00;99.90;;;;;;4948966;28;20422;-76
2023/06/20 01:44:34;;;;;;;7.28;5.38;;;19.00;99.90;;;;;;4950423;28;20432;-76
2023/06/20 01:47:05;;;;;;;6.50;5.40;;;19.00;99.90;;;;;;4959045;28;20422;-76
2023/06/20 01:49:33;;;;;;;6.53;5.33;;;18.90;99.90;;;;;;4953503;28;21431;-76
2023/06/20 01:52:00;;;;;;;7.15;5.22;;;18.80;99.90;;;;;;4956299;28;20968;-76
2023/06/20 01:54:30;;;;;;;7.18;5.00;;;18.80;99.90;;;;;;4952194;28;20517;-76
2023/06/20 01:56:57;;;;;;;7.60;5.57;;;18.70;99.90;;;;;;4947642;28;20503;-76
2023/06/20 01:59:26;;;;;;;8.20;5.65;;;18.70;99.90;;;;;;4944907;28;20524;-76
2023/06/20 02:01:58;;;;;;;7.28;5.80;;;18.70;99.90;;;;;;4976998;28;20514;-76
2023/06/20 02:04:26;;;;;;;8.30;5.93;;;18.70;99.90;;;;;;4954384;28;20461;-76
2023/06/20 02:06:55;;;;;;;6.88;5.85;;;18.70;99.90;;;;;;4959848;28;20422;-76
2023/06/20 02:09:22;;;;;;;7.35;5.65;;;18.60;99.90;;;;;;4951277;28;20878;-75
2023/06/20 02:11:49;;;;;;;9.05;6.03;;;18.60;99.90;;;;;;4956202;28;20603;-75
2023/06/20 02:14:16;;;;;;;7.90;5.80;;;18.60;99.90;;;;;;4963872;28;20492;-75
2023/06/20 02:16:47;;;;;;;7.25;5.88;;;18.60;99.90;;;;;;4949540;28;20532;-75
2023/06/20 02:19:13;;;;;;;7.82;5.82;;;18.60;99.90;;;;;;4952987;28;20544;-74
2023/06/20 02:21:44;;;;;;;10.27;6.25;;;18.50;99.90;;;;;;4978484;28;20438;-75
2023/06/20 02:24:18;;;;;;;8.23;6.23;;;18.60;99.90;;;;;;4951690;28;20422;-75
2023/06/20 02:26:46;;;;;;;7.63;5.78;;;18.60;99.90;;;;;;4977102;28;21125;-75
2023/06/20 02:29:14;;;;;;;6.82;5.82;;;18.60;99.90;;;;;;4931780;28;20425;-75
2023/06/20 02:31:47;;;;;;;9.32;6.25;;;18.50;99.90;;;;;;4955557;28;20759;-75
2023/06/20 02:34:20;;;;;;;7.68;6.10;;;18.50;99.90;;;;;;4950199;28;20424;-75
2023/06/20 02:36:48;;;;;;;7.47;5.90;;;18.50;99.90;;;;;;4950282;28;20500;-75
2023/06/20 02:39:18;;;;;;;8.05;6.30;;;18.60;99.90;;;;;;4953066;28;20464;-75
2023/06/20 02:41:44;;;;;;;7.75;6.43;;;18.60;99.90;;;;;;4974734;28;20465;-75
2023/06/20 02:44:10;;;;;;;7.73;6.07;;;18.50;99.90;;;;;;4954555;28;20478;-75
2023/06/20 02:47:35;;;;;;;6.80;6.10;;;18.60;99.90;;;;;;4953765;28;20481;-75
2023/06/20 02:50:16;;;;;;;8.48;6.30;;;18.60;99.90;;;;;;4954229;28;20420;-76
2023/06/20 02:53:06;;;;;;;7.90;6.05;;;18.60;99.90;;;;;;4957526;28;20430;-75
2023/06/20 02:56:01;;;;;;;7.20;6.20;;;18.70;99.90;;;;;;4955395;28;20424;-75
2023/06/20 02:58:31;;;;;;;8.82;6.38;;;18.70;99.90;;;;;;4955236;28;20415;-75
2023/06/20 03:01:01;;;;;;;10.13;6.30;;;18.70;99.90;;;;;;4961864;28;20491;-76
2023/06/20 03:03:40;;;;;;;8.27;5.97;;;18.60;99.90;;;;;;4955146;28;20414;-75
2023/06/20 03:06:09;;;;;;;8.80;6.10;;;18.70;99.90;;;;;;4958602;28;20935;-75
2023/06/20 03:08:44;;;;;;;9.65;6.22;;;18.70;99.90;;;;;;4962957;28;20410;-75
2023/06/20 03:11:11;;;;;;;7.55;6.30;;;18.70;99.90;;;;;;4953044;28;20429;-75
2023/06/20 03:13:38;;;;;;;7.38;6.20;;;18.60;99.90;;;;;;4966600;28;20423;-75
2023/06/20 03:16:07;;;;;;;7.07;6.07;;;18.60;99.90;;;;;;4954590;28;20438;-75
2023/06/20 03:18:34;;;;;;;7.47;6.33;;;18.60;99.90;;;;;;4954380;28;20426;-75
2023/06/20 03:21:01;;;;;;;9.47;6.37;;;18.60;99.90;;;;;;4950327;28;20934;-75
2023/06/20 03:23:27;;;;;;;7.47;6.18;;;18.70;99.90;;;;;;4979309;28;20525;-75
2023/06/20 03:25:53;;;;;;;7.82;6.30;;;18.70;99.90;;;;;;4951541;28;20518;-75
2023/06/20 03:28:19;;;;;;;8.32;6.32;;;18.80;99.90;;;;;;4956735;28;21064;-74
2023/06/20 03:30:45;;;;;;;8.80;6.30;;;18.80;99.90;;;;;;4957711;28;20449;-75
2023/06/20 03:33:12;;;;;;;7.07;5.95;;;18.90;99.90;;;;;;4950878;28;20440;-75
2023/06/20 03:35:39;;;;;;;6.68;6.03;;;18.90;99.90;;;;;;4954224;28;20940;-75
2023/06/20 03:38:05;;;;;;;7.25;6.40;;;18.90;99.90;;;;;;4957080;28;20430;-74
2023/06/20 03:40:31;;;;;;;7.47;6.18;;;18.90;99.90;;;;;;4949345;28;20425;-74
2023/06/20 03:42:58;;;;;;;7.40;6.22;;;18.90;99.90;;;;;;4952471;28;20420;-74
2023/06/20 03:45:24;;;;;;;7.25;6.22;;;18.90;99.90;;;;;;4954711;28;20416;-74
2023/06/20 03:47:51;;;;;;;7.43;6.55;;;19.00;99.90;;;;;;4956309;28;21690;-74
2023/06/20 03:50:17;;;;;;;7.47;6.20;;;18.90;99.90;;;;;;4967349;28;20962;-75
2023/06/20 03:52:43;;;;;;;8.40;6.40;;;19.00;99.90;;;;;;4953226;28;20435;-76
2023/06/20 03:55:10;;;;;;;9.65;6.65;;;19.00;99.90;;;;;;4953995;28;20456;-76
2023/06/20 03:57:36;;;;;;;7.70;6.93;;;19.00;99.90;;;;;;4951556;28;20859;-75
2023/06/20 04:00:12;;;;;;;9.93;6.47;;;19.00;99.90;;;;;;4953146;28;21034;-75
2023/06/20 04:02:44;;;;;;;8.77;6.93;;;19.00;99.90;;;;;;4960045;28;20944;-75
2023/06/20 04:05:10;;;;;;;10.07;7.25;;;19.10;99.90;;;;;;4967170;28;20515;-76
2023/06/20 04:07:36;;;;;;;8.27;7.00;;;19.10;99.90;;;;;;4954911;28;20430;-75
2023/06/20 04:10:03;;;;;;;8.25;7.30;;;19.10;99.90;;;;;;4952174;28;20452;-75
2023/06/20 04:12:29;;;;;;;7.75;6.95;;;19.20;99.90;;;;;;4950088;28;20453;-76
2023/06/20 04:14:55;;;;;;;8.27;7.33;;;19.30;99.90;;;;;;4949375;28;21113;-75
2023/06/20 04:17:22;;;;;;;7.75;6.95;;;19.30;99.90;;;;;;4947695;28;20426;-75
2023/06/20 04:19:48;;;;;;;8.07;7.28;;;19.40;99.90;;;;;;4947018;28;20454;-75
2023/06/20 04:22:14;;;;;;;8.45;7.20;;;19.40;99.90;;;;;;4952353;28;20425;-76
2023/06/20 04:24:40;;;;;;;8.07;7.27;;;19.50;99.90;;;;;;4952549;28;20455;-75
2023/06/20 04:27:07;;;;;;;7.90;7.07;;;19.60;99.90;;;;;;4951779;28;20414;-75
2023/06/20 04:29:33;;;;;;;9.75;7.68;;;19.60;99.90;;;;;;4952123;28;20423;-75
2023/06/20 04:32:00;;;;;;;8.82;7.53;;;19.70;99.90;;;;;;4947458;28;20456;-74
2023/06/20 04:34:26;;;;;;;9.55;7.90;;;19.80;99.90;;;;;;4942520;28;21331;-75
2023/06/20 04:36:53;;;;;;;9.03;8.03;;;19.90;99.90;;;;;;4952408;28;20433;-74
2023/06/20 04:39:19;;;;;;;9.38;8.10;;;19.90;99.90;;;;;;4966819;28;20422;-75
2023/06/20 04:41:45;;;;;;;9.75;7.95;;;20.00;99.90;;;;;;4948432;28;20449;-75
2023/06/20 04:44:12;;;;;;;9.00;7.75;;;20.00;99.90;;;;;;4950052;28;20891;-75
2023/06/20 04:46:39;;;;;;;9.32;7.63;;;20.10;99.90;;;;;;4954668;28;21682;-75
2023/06/20 04:49:05;;;;;;;8.48;7.35;;;20.20;99.90;;;;;;4947889;28;20444;-75
2023/06/20 04:51:31;;;;;;;8.83;7.80;;;20.20;99.90;;;;;;4953147;28;20424;-75
2023/06/20 04:53:58;;;;;;;9.82;8.25;;;20.30;99.90;;;;;;4957505;28;21167;-75
2023/06/20 04:56:24;;;;;;;10.20;8.20;;;20.30;99.90;;;;;;4952617;28;20956;-74
2023/06/20 04:58:50;;;;;;;10.53;7.93;;;20.40;99.90;;;;;;4953251;28;20422;-75
2023/06/20 05:01:17;;;;;;;10.95;7.97;;;20.40;99.90;;;;;;4952799;28;20428;-75
2023/06/20 05:03:44;;;;;;;9.80;8.00;;;20.50;99.90;;;;;;4951129;28;20423;-75
2023/06/20 05:06:16;;;;;;;10.68;7.97;;;20.50;99.90;;;;;;4969787;28;20505;-75
2023/06/20 05:08:46;;;;;;;10.95;7.75;;;20.60;99.90;;;;;;4954579;28;20494;-75
2023/06/20 05:11:12;;;;;;;10.35;7.50;;;20.60;99.90;;;;;;4947542;28;20522;-75
2023/06/20 05:13:38;;;;;;;10.03;7.50;;;20.60;99.90;;;;;;4967723;28;20429;-75
2023/06/20 05:16:05;;;;;;;8.23;7.40;;;20.80;99.90;;;;;;4946810;28;21118;-75
2023/06/20 05:18:32;;;;;;;9.05;7.13;;;20.80;99.90;;;;;;4950126;28;20420;-75
2023/06/20 05:20:58;;;;;;;8.20;7.40;;;20.90;99.90;;;;;;4948166;28;20464;-75
2023/06/20 05:23:26;;;;;;;9.07;7.00;;;20.90;99.90;;;;;;4977432;28;20413;-75
2023/06/20 05:25:53;;;;;;;9.10;7.00;;;21.00;99.90;;;;;;4948939;28;20429;-74
2023/06/20 05:28:20;;;;;;;10.13;7.15;;;21.00;99.90;;;;;;4943544;28;20480;-75
2023/06/20 05:30:46;;;;;;;7.43;6.65;;;21.10;99.90;;;;;;4950349;28;20478;-75
2023/06/20 05:33:12;;;;;;;7.97;6.63;;;21.10;99.90;;;;;;4944243;28;20425;-75
2023/06/20 05:35:39;;;;;;;9.88;7.20;;;21.20;99.90;;;;;;4953039;28;20431;-75
2023/06/20 05:38:05;;;;;;;8.25;6.55;;;21.20;99.90;;;;;;4947840;28;20516;-75
2023/06/20 05:40:32;;;;;;;7.53;6.65;;;21.30;99.90;;;;;;4945699;28;20529;-75
2023/06/20 05:42:58;;;;;;;8.60;6.45;;;21.40;99.90;;;;;;4948600;28;20426;-75
2023/06/20 05:45:24;;;;;;;7.10;6.13;;;21.40;99.90;;;;;;4957079;28;20437;-75
2023/06/20 05:47:50;;;;;;;8.00;6.75;;;21.40;99.90;;;;;;4947677;28;20437;-76
2023/06/20 05:50:17;;;;;;;8.52;6.72;;;21.60;99.90;;;;;;4945642;28;20429;-75
2023/06/20 05:52:43;;;;;;;8.23;6.50;;;21.60;99.90;;;;;;4954324;28;20835;-76
2023/06/20 05:55:09;;;;;;;7.90;6.65;;;21.70;99.90;;;;;;4950631;28;21799;-75
2023/06/20 05:57:37;;;;;;;7.60;6.40;;;21.80;99.90;;;;;;4961734;28;20448;-75
2023/06/20 06:00:12;;;;;;;8.15;6.57;;;21.90;99.90;;;;;;4951824;28;20478;-75
2023/06/20 06:02:40;;;;;;;9.77;5.95;;;21.90;99.90;;;;;;4954355;28;20895;-75
2023/06/20 06:05:06;;;;;;;8.15;6.10;;;22.00;99.90;;;;;;4945909;28;20493;-75
2023/06/20 06:07:33;;;;;;;7.18;6.13;;;22.00;99.90;;;;;;4947979;28;20432;-75
2023/06/20 06:09:59;;;;;;;9.32;6.15;;;22.10;99.90;;;;;;4946697;28;20543;-75
2023/06/20 06:12:25;;;;;;;8.18;6.07;;;22.20;99.90;;;;;;4958346;28;20428;-74
2023/06/20 06:14:51;;;;;;;6.60;5.80;;;22.40;99.90;;;;;;4955054;28;20657;-74
2023/06/20 06:18:32;;;;;;;8.48;5.70;;;22.40;99.90;;;;;;4949858;28;20454;-75
2023/06/20 06:20:59;;;;;;;6.10;4.72;;;22.50;99.90;;;;;;4955223;28;20542;-74
2023/06/20 06:23:25;;;;;;;6.93;5.18;;;22.70;99.90;;;;;;4976788;28;20431;-74
2023/06/20 06:25:52;;;;;;;7.22;4.88;;;22.70;99.90;;;;;;4946267;28;20917;-74
2023/06/20 06:28:18;;;;;;;6.40;5.13;;;22.80;99.90;;;;;;4953570;28;20926;-74
2023/06/20 06:30:44;;;;;;;4.90;4.40;;;22.90;99.90;;;;;;4964026;28;20429;-74
2023/06/20 06:33:12;;;;;;;5.93;4.00;;;23.00;99.90;;;;;;4948419;28;20430;-74
2023/06/20 06:35:40;;;;;;;5.35;4.15;;;22.90;99.90;;;;;;4947379;28;20832;-74
2023/06/20 06:38:07;;;;;;;4.97;4.13;;;23.00;99.90;;;;;;4967961;28;20474;-74
2023/06/20 06:40:33;;;;;;;5.20;3.60;;;23.10;99.90;;;;;;4956450;28;20420;-74
2023/06/20 06:43:00;;;;;;;5.30;3.25;;;23.20;99.90;;;;;;4974347;28;20423;-76
2023/06/20 06:45:26;;;;;;;8.10;3.20;;;23.20;99.90;;;;;;4945255;28;20409;-75
2023/06/20 06:47:52;;;;;;;4.32;3.33;;;23.40;99.90;;;;;;4964769;28;20450;-76
2023/06/20 06:50:19;;;;;;;5.20;2.95;;;23.50;99.90;;;;;;4950447;28;20427;-76
2023/06/20 06:52:47;;;;;;;5.38;3.13;;;23.50;99.90;;;;;;4955052;28;20774;-74
2023/06/20 06:55:13;;;;;;;4.78;3.35;;;23.60;99.90;;;;;;4946442;28;20429;-74
2023/06/20 06:57:40;;;;;;;4.90;3.30;;;23.70;99.90;;;;;;4952198;28;20441;-75
2023/06/20 07:00:11;;;;;;;5.03;3.17;;;23.80;99.90;;;;;;4963256;28;20424;-75
2023/06/20 07:02:38;;;;;;;3.92;3.35;;;24.00;99.90;;;;;;4948873;28;20879;-75
2023/06/20 07:05:05;;;;;;;5.13;3.55;;;24.10;99.90;;;;;;4948614;28;20547;-75
2023/06/20 07:07:31;;;;;;;4.47;3.60;;;24.30;99.90;;;;;;4941634;28;20453;-75
2023/06/20 07:09:57;;;;;;;4.95;3.90;;;24.30;99.90;;;;;;4966145;28;20498;-75
2023/06/20 07:12:24;;;;;;;4.15;3.45;;;24.30;99.90;;;;;;4954358;28;20417;-75
2023/06/20 07:14:52;;;;;;;5.72;3.60;;;24.40;99.90;;;;;;4952407;28;20432;-76
2023/06/20 07:17:18;;;;;;;7.50;4.13;;;24.60;99.90;;;;;;4950008;28;20425;-75
2023/06/20 07:19:44;;;;;;;5.32;4.13;;;24.70;99.90;;;;;;4953982;28;20429;-76
2023/06/20 07:22:11;;;;;;;7.63;4.90;;;24.90;99.90;;;;;;4972578;28;20449;-76
2023/06/20 07:24:37;;;;;;;6.38;4.53;;;25.10;99.90;;;;;;4949393;28;20523;-76
2023/06/20 07:27:03;;;;;;;6.70;4.20;;;25.20;99.90;;;;;;4955107;28;20417;-76
2023/06/20 07:29:30;;;;;;;7.05;4.35;;;25.20;99.90;;;;;;4949833;28;20453;-76
2023/06/20 07:31:56;;;;;;;4.93;4.20;;;25.40;99.90;;;;;;4954014;28;20420;-75
2023/06/20 07:34:22;;;;;;;5.60;4.35;;;25.40;99.90;;;;;;4945980;28;20412;-76
2023/06/20 07:36:48;;;;;;;9.00;4.40;;;25.50;99.90;;;;;;4953223;28;21190;-76
2023/06/20 07:39:15;;;;;;;6.00;4.50;;;25.70;99.90;;;;;;4951281;28;20450;-76
2023/06/20 07:41:41;;;;;;;7.20;4.40;;;25.80;99.90;;;;;;4937714;28;20836;-75
2023/06/20 07:44:10;;;;;;;5.53;4.10;;;25.90;99.90;;;;;;4949312;28;20412;-75
2023/06/20 07:46:40;;;;;;;5.97;4.00;;;26.00;99.90;;;;;;4958883;28;20416;-74
2023/06/20 07:49:06;;;;;;;4.95;3.80;;;26.00;99.90;;;;;;4953103;28;20932;-74
2023/06/20 07:51:33;;;;;;;5.03;3.55;;;26.10;99.90;;;;;;4951860;28;21064;-74
2023/06/20 07:54:03;;;;;;;7.53;4.90;;;26.10;99.90;;;;;;4947051;28;20756;-74
2023/06/20 07:57:07;;;;;;;5.13;3.90;;;26.40;99.90;;;;;;4963087;28;20416;-74
2023/06/20 07:59:33;;;;;;;6.45;3.92;;;26.50;99.90;;;;;;4979579;28;22234;-74
2023/06/20 08:01:59;;;;;;;5.95;4.50;;;26.50;99.90;;;;;;4954040;28;20425;-75
2023/06/20 08:04:25;;;;;;;7.68;4.97;;;26.70;99.90;;;;;;4958068;28;20416;-75
2023/06/20 08:06:52;;;;;;;6.50;4.20;;;26.90;99.90;;;;;;4938970;28;21003;-75
2023/06/20 08:09:18;;;;;;;8.15;5.03;;;26.90;99.90;;;;;;4956482;28;21005;-75
2023/06/20 08:11:44;;;;;;;5.80;4.80;;;27.10;99.90;;;;;;4956008;28;20421;-75
2023/06/20 08:14:12;;;;;;;6.95;4.50;;;27.10;99.90;;;;;;4957168;28;20482;-75
2023/06/20 08:16:39;;;;;;;6.63;4.25;;;27.20;99.90;;;;;;4955031;28;20426;-76
2023/06/20 08:19:05;;;;;;;7.10;4.57;;;27.30;99.90;;;;;;4968056;28;20426;-76
2023/06/20 08:21:31;;;;;;;7.55;4.53;;;27.40;99.90;;;;;;4982341;28;20420;-76
2023/06/20 08:23:58;;;;;;;5.85;4.45;;;27.50;99.90;;;;;;4965207;28;20448;-76
2023/06/20 08:26:24;;;;;;;5.63;4.15;;;27.70;99.90;;;;;;4953291;28;20426;-75
2023/06/20 08:28:50;;;;;;;5.53;3.65;;;27.70;99.90;;;;;;4956610;28;20558;-76
2023/06/20 08:31:16;;;;;;;6.28;3.97;;;27.70;99.90;;;;;;4955257;28;20430;-76
2023/06/20 08:33:43;;;;;;;6.07;4.03;;;27.80;99.90;;;;;;4955680;28;20428;-75
2023/06/20 08:36:12;;;;;;;4.80;3.70;;;27.90;99.90;;;;;;4949329;28;20950;-75
2023/06/20 08:38:38;;;;;;;4.68;3.63;;;28.00;99.90;;;;;;4947643;28;20434;-75
2023/06/20 08:41:09;;;;;;;5.53;4.20;;;28.10;99.90;;;;;;4952122;28;20441;-75
2023/06/20 08:43:36;;;;;;;5.85;3.90;;;28.20;99.90;;;;;;4959401;28;20468;-75
2023/06/20 08:46:02;;;;;;;4.20;3.50;;;28.20;99.90;;;;;;4953618;28;21008;-75
2023/06/20 08:48:28;;;;;;;5.90;3.80;;;28.20;99.90;;;;;;4948305;28;20428;-76
2023/06/20 08:50:54;;;;;;;5.53;3.92;;;28.40;99.90;;;;;;4969010;28;20732;-76
2023/06/20 08:53:21;;;;;;;6.30;4.00;;;28.40;99.90;;;;;;4957769;28;20424;-75
2023/06/20 08:55:49;;;;;;;5.93;4.00;;;28.50;99.90;;;;;;4956026;28;21328;-76
2023/06/20 08:58:15;;;;;;;7.55;4.15;;;28.50;99.90;;;;;;4951680;28;20432;-76
2023/06/20 09:00:44;;;;;;;6.63;3.87;;;28.60;99.90;;;;;;4972891;28;20522;-76
2023/06/20 09:03:10;;;;;;;5.50;4.05;;;28.80;99.90;;;;;;4953971;28;20490;-78
2023/06/20 09:05:45;;;;;;;5.57;3.72;;;28.90;99.90;;;;;;4954584;28;20409;-76
2023/06/20 09:08:15;;;;;;;5.55;3.80;;;29.10;99.90;;;;;;4968821;28;20855;-74
2023/06/20 09:10:44;;;;;;;6.80;3.63;;;29.00;99.90;;;;;;4960933;28;21035;-74
2023/06/20 09:13:14;;;;;;;4.15;3.75;;;29.10;99.90;;;;;;4977540;28;20593;-74
2023/06/20 09:15:41;;;;;;;5.23;3.43;;;29.20;99.90;;;;;;4975941;28;20924;-73
2023/06/20 09:18:11;;;;;;;4.80;3.65;;;29.20;99.90;;;;;;4941156;28;20422;-74
2023/06/20 09:20:40;;;;;;;6.73;3.80;;;29.20;99.90;;;;;;4956481;28;20932;-74
2023/06/20 09:23:07;;;;;;;4.80;3.50;;;29.20;99.90;;;;;;4959983;28;21147;-74
2023/06/20 09:25:35;;;;;;;4.47;3.13;;;29.30;99.90;;;;;;4949700;28;20421;-74
2023/06/20 09:28:03;;;;;;;5.10;3.10;;;29.50;99.90;;;;;;4947436;28;20433;-73
2023/06/20 09:30:30;;;;;;;7.00;3.30;;;29.60;99.90;;;;;;4950355;28;20420;-73
2023/06/20 09:33:05;;;;;;;3.83;3.15;;;29.70;99.90;;;;;;4948829;28;20530;-73
2023/06/20 09:35:32;;;;;;;3.77;3.33;;;29.90;99.90;;;;;;4950126;28;20427;-73
2023/06/20 09:38:06;;;;;;;5.67;3.17;;;30.00;99.90;;;;;;4935178;28;20834;-73
2023/06/20 09:40:43;;;;;;;4.30;3.37;;;29.90;99.90;;;;;;4958186;28;20423;-74
2023/06/20 09:43:09;;;;;;;6.68;3.70;;;29.90;99.90;;;;;;4975868;28;20805;-74
2023/06/20 09:45:36;;;;;;;6.50;3.50;;;29.80;99.90;;;;;;4966481;28;20432;-75
2023/06/20 09:48:03;;;;;;;3.95;3.03;;;29.90;99.90;;;;;;4955710;28;20468;-75
2023/06/20 09:50:32;;;;;;;4.32;3.10;;;30.20;99.90;;;;;;4949840;28;20419;-75
2023/06/20 09:53:19;;;;;;;7.63;3.90;;;30.20;99.90;;;;;;4944711;28;20855;-75
2023/06/20 09:55:47;;;;;;;5.45;3.28;;;30.30;99.90;;;;;;4950154;28;20954;-75
2023/06/20 09:58:18;;;;;;;6.38;3.85;;;30.40;99.90;;;;;;4948426;28;20426;-75
2023/06/20 10:00:46;;;;;;;8.07;4.10;;;30.40;99.90;;;;;;4949496;28;20483;-75
2023/06/20 10:03:12;;;;;;;4.60;3.00;;;30.40;99.90;;;;;;4956640;28;20928;-75
2023/06/20 10:05:41;;;;;;;4.50;2.83;;;30.40;99.90;;;;;;4938857;28;20453;-75
2023/06/20 10:08:08;;;;;;;5.07;2.80;;;30.20;99.90;;;;;;4963729;28;20420;-75
2023/06/20 10:10:34;;;;;;;4.50;2.22;;;30.20;99.90;;;;;;4930135;28;20411;-75
2023/06/20 10:13:02;;;;;;;3.63;2.42;;;30.20;99.90;;;;;;4947761;28;20430;-75
2023/06/20 10:15:29;;;;;;;3.60;2.13;;;30.40;99.90;;;;;;4954442;28;20437;-75
2023/06/20 10:17:55;;;;;;;3.42;2.25;;;30.40;99.90;;;;;;4955479;28;20514;-74
2023/06/20 10:20:31;;;;;;;4.05;2.13;;;30.30;99.90;;;;;;4961062;28;21058;-75
2023/06/20 10:23:03;;;;;;;2.63;2.40;;;30.20;99.90;;;;;;4948788;28;20938;-74
2023/06/20 10:25:30;;;;;;;3.55;2.30;;;30.20;99.90;;;;;;4945520;28;20426;-73
2023/06/20 10:28:01;;;;;;;4.97;2.35;;;30.20;99.90;;;;;;4942897;28;20416;-74
2023/06/20 10:30:49;;;;;;;3.92;2.40;;;30.20;99.90;;;;;;4973075;28;20418;-75
2023/06/20 10:33:23;;;;;;;3.55;2.22;;;30.20;99.90;;;;;;4953136;28;20426;-74
2023/06/20 10:36:03;;;;;;;3.08;2.15;;;30.10;99.90;;;;;;4950595;28;20952;-75
2023/06/20 10:38:33;;;;;;;3.10;2.38;;;30.20;99.90;;;;;;4948082;28;20934;-75
2023/06/20 10:41:14;;;;;;;3.00;2.05;;;30.10;99.90;;;;;;4950392;28;20791;-75
2023/06/20 10:44:03;;;;;;;5.33;2.27;;;30.10;99.90;;;;;;4950562;28;20477;-74
2023/06/20 10:46:48;;;;;;;3.00;2.10;;;30.10;99.90;;;;;;4956104;28;20408;-75
2023/06/20 10:49:15;;;;;;;3.85;2.15;;;30.10;99.90;;;;;;4941414;28;20416;-75
2023/06/20 10:51:53;;;;;;;5.70;2.22;;;29.90;99.90;;;;;;4946483;28;20430;-75
2023/06/20 10:54:22;;;;;;;4.32;2.22;;;29.90;99.90;;;;;;4945973;28;20499;-75
2023/06/20 10:56:48;;;;;;;3.35;2.10;;;29.90;99.90;;;;;;4947397;28;20499;-75
2023/06/20 10:59:18;;;;;;;3.95;2.20;;;29.90;99.90;;;;;;4945492;28;20420;-75
2023/06/20 11:01:45;;;;;;;2.88;2.33;;;30.00;99.90;;;;;;4950668;28;20426;-75
2023/06/20 11:04:15;;;;;;;2.53;2.33;;;30.10;99.90;;;;;;4947327;28;21075;-75
2023/06/20 11:06:42;;;;;;;3.30;2.40;;;30.00;99.90;;;;;;4966141;28;20440;-75
2023/06/20 11:09:25;;;;;;;2.35;2.15;;;29.70;99.90;;;;;;4961665;28;20504;-75
2023/06/20 11:11:51;;;;;;;3.08;2.40;;;29.60;99.90;;;;;;4942149;28;20422;-75
2023/06/20 11:14:23;;;;;;;4.00;2.22;;;29.70;99.90;;;;;;4959628;28;20430;-75
2023/06/20 11:16:53;;;;;;;4.38;2.45;;;29.80;99.90;;;;;;4955200;28;20413;-75
2023/06/20 11:19:27;;;;;;;5.38;2.58;;;29.70;99.90;;;;;;4958942;28;20782;-75
2023/06/20 11:21:55;;;;;;;4.75;3.15;;;29.60;99.90;;;;;;4949892;28;20428;-75
2023/06/20 11:24:21;;;;;;;8.20;4.38;;;29.60;99.90;;;;;;4948422;28;20955;-75
2023/06/20 11:26:47;;;;;;;3.47;2.40;;;29.70;99.90;;;;;;4967925;28;20521;-75
2023/06/20 11:29:14;;;;;;;6.40;3.20;;;29.80;99.90;;;;;;4953063;28;20474;-75
2023/06/20 11:31:40;;;;;;;4.90;3.55;;;29.80;99.90;;;;;;4983182;28;20437;-75
2023/06/20 11:34:12;;;;;;;4.90;2.70;;;29.70;99.90;;;;;;4953939;28;20523;-75
2023/06/20 11:36:40;;;;;;;4.00;2.78;;;29.70;99.90;;;;;;4956123;28;20453;-74
2023/06/20 11:39:15;;;;;;;5.03;2.60;;;29.60;99.90;;;;;;4962374;28;21331;-75
2023/06/20 11:41:42;;;;;;;4.80;2.70;;;29.60;99.90;;;;;;4948968;28;20816;-75
2023/06/20 11:44:26;;;;;;;5.43;2.87;;;29.60;99.90;;;;;;4951819;28;20487;-75
2023/06/20 11:46:57;;;;;;;5.07;2.38;;;29.60;99.90;;;;;;4950288;28;20433;-74
2023/06/20 11:49:31;;;;;;;3.80;2.30;;;29.50;99.90;;;;;;4951859;28;20928;-75
2023/06/20 11:51:57;;;;;;;3.80;2.45;;;29.40;99.90;;;;;;4947911;28;20413;-74
2023/06/20 11:54:24;;;;;;;5.78;2.53;;;29.50;99.90;;;;;;4966300;28;20424;-75
2023/06/20 11:56:52;;;;;;;3.65;2.40;;;29.40;99.90;;;;;;4946665;28;20498;-75
2023/06/20 11:59:25;;;;;;;3.43;2.30;;;29.40;99.90;;;;;;4946020;28;20509;-75
2023/06/20 12:01:52;;;;;;;3.80;2.87;;;29.50;99.90;;;;;;4947129;28;20414;-75
2023/06/20 12:04:20;;;;;;;4.27;2.20;;;29.40;99.90;;;;;;4955544;28;20516;-74
2023/06/20 12:06:53;;;;;;;3.33;2.40;;;29.40;99.90;;;;;;4945037;28;20426;-74
2023/06/20 12:09:19;;;;;;;4.77;2.23;;;29.40;99.90;;;;;;4945784;28;20515;-74
2023/06/20 12:11:54;;;;;;;4.43;2.20;;;29.60;99.90;;;;;;4943342;28;20433;-75
2023/06/20 12:14:22;;;;;;;4.50;2.30;;;29.50;99.90;;;;;;4947310;28;20943;-74
2023/06/20 12:16:49;;;;;;;4.53;2.15;;;29.40;99.90;;;;;;4948327;28;20852;-74
2023/06/20 12:19:17;;;;;;;2.58;1.80;;;29.30;99.90;;;;;;4950118;28;20425;-75
2023/06/20 12:21:43;;;;;;;3.67;2.00;;;29.40;99.90;;;;;;4950046;28;20424;-75
2023/06/20 12:24:14;;;;;;;2.35;1.90;;;29.30;99.90;;;;;;4948559;28;20426;-74
2023/06/20 12:26:40;;;;;;;3.53;2.13;;;29.30;99.90;;;;;;4948619;28;20418;-74
2023/06/20 12:29:08;;;;;;;6.63;2.20;;;29.30;99.90;;;;;;4947118;28;20462;-74
2023/06/20 12:31:35;;;;;;;4.30;2.40;;;29.30;99.90;;;;;;4949413;28;20806;-74
2023/06/20 12:34:01;;;;;;;3.53;2.38;;;29.20;99.90;;;;;;4965811;28;20430;-74
2023/06/20 12:36:27;;;;;;;5.00;2.20;;;29.20;99.90;;;;;;4955010;28;21085;-74
2023/06/20 12:38:53;;;;;;;4.65;2.30;;;29.30;99.90;;;;;;4955209;28;20422;-74
2023/06/20 12:41:21;;;;;;;3.60;1.92;;;29.30;99.90;;;;;;4940494;28;20422;-74
2023/06/20 12:43:48;;;;;;;4.18;2.28;;;29.40;99.90;;;;;;4954078;28;20422;-76
2023/06/20 12:46:14;;;;;;;3.42;2.20;;;29.30;99.90;;;;;;4939567;28;20997;-75
2023/06/20 12:48:40;;;;;;;3.72;2.45;;;29.20;99.90;;;;;;4938334;28;20465;-75
2023/06/20 12:51:06;;;;;;;4.97;2.60;;;29.10;99.90;;;;;;4951912;28;20512;-74
2023/06/20 12:53:35;;;;;;;4.28;2.08;;;29.20;99.90;;;;;;4978611;28;20439;-75
2023/06/20 12:56:01;;;;;;;5.30;2.30;;;29.10;99.90;;;;;;4963967;28;20424;-75
2023/06/20 12:58:32;;;;;;;4.20;2.60;;;29.10;99.90;;;;;;4951867;28;20926;-75